Aviation Digital Data Service (ADDS)

Output produced by METARs form (0040 UTC 26 July 2016)
found at http://aviationweather.gov/adds/metars/
 
KBFD 252322Z 2600/2624 29007KT P6SM SKC 
     FM260600 00000KT 2SM BR SKC 
     FM261100 29006KT P6SM SKC 
     FM261300 30008G15KT P6SM SCT040